sensor_id;sensor_type;location;lat;lon;timestamp;pressure;altitude;pressure_sealevel;temperature;humidity
28344;BME280;15597;50.914;6.638;2023-08-07T00:00:24;100513.19;;;18.28;59.82
28344;BME280;15597;50.914;6.638;2023-08-07T00:02:49;100522.22;;;18.24;59.50
28344;BME280;15597;50.914;6.638;2023-08-07T00:05:15;100527.69;;;18.21;59.79
28344;BME280;15597;50.914;6.638;2023-08-07T00:07:42;100521.72;;;18.17;59.83
28344;BME280;15597;50.914;6.638;2023-08-07T00:10:08;100527.19;;;18.14;59.91
28344;BME280;15597;50.914;6.638;2023-08-07T00:12:34;100524.63;;;18.13;59.86
28344;BME280;15597;50.914;6.638;2023-08-07T00:14:59;100522.13;;;18.09;59.77
28344;BME280;15597;50.914;6.638;2023-08-07T00:17:26;100515.84;;;18.12;59.85
28344;BME280;15597;50.914;6.638;2023-08-07T00:19:51;100528.91;;;18.15;60.10
28344;BME280;15597;50.914;6.638;2023-08-07T00:22:17;100523.28;;;18.21;59.77
28344;BME280;15597;50.914;6.638;2023-08-07T00:24:43;100523.88;;;18.27;59.64
28344;BME280;15597;50.914;6.638;2023-08-07T00:27:08;100519.34;;;18.29;59.56
28344;BME280;15597;50.914;6.638;2023-08-07T00:29:36;100530.78;;;18.29;59.21
28344;BME280;15597;50.914;6.638;2023-08-07T00:32:02;100530.78;;;18.29;59.24
28344;BME280;15597;50.914;6.638;2023-08-07T00:34:28;100527.69;;;18.21;59.52
28344;BME280;15597;50.914;6.638;2023-08-07T00:36:53;100533.00;;;18.21;59.60
28344;BME280;15597;50.914;6.638;2023-08-07T00:39:19;100532.31;;;18.17;59.46
28344;BME280;15597;50.914;6.638;2023-08-07T00:41:44;100535.91;;;18.16;59.43
28344;BME280;15597;50.914;6.638;2023-08-07T00:44:10;100532.66;;;18.11;59.62
28344;BME280;15597;50.914;6.638;2023-08-07T00:46:36;100539.84;;;18.09;59.67
28344;BME280;15597;50.914;6.638;2023-08-07T00:49:02;100535.31;;;18.11;59.54
28344;BME280;15597;50.914;6.638;2023-08-07T00:51:28;100547.78;;;18.09;59.58
28344;BME280;15597;50.914;6.638;2023-08-07T00:53:54;100544.41;;;18.05;59.81
28344;BME280;15597;50.914;6.638;2023-08-07T00:56:20;100539.28;;;18.02;59.77
28344;BME280;15597;50.914;6.638;2023-08-07T00:58:46;100543.72;;;18.02;60.02
28344;BME280;15597;50.914;6.638;2023-08-07T01:01:12;100540.16;;;18.03;59.79
28344;BME280;15597;50.914;6.638;2023-08-07T01:03:37;100537.41;;;18.04;59.92
28344;BME280;15597;50.914;6.638;2023-08-07T01:06:04;100543.59;;;18.05;59.53
28344;BME280;15597;50.914;6.638;2023-08-07T01:08:30;100543.72;;;18.02;59.68
28344;BME280;15597;50.914;6.638;2023-08-07T01:16:29;100539.91;;;17.90;59.89
28344;BME280;15597;50.914;6.638;2023-08-07T01:18:57;100537.94;;;17.93;59.75
28344;BME280;15597;50.914;6.638;2023-08-07T01:21:23;100539.44;;;17.99;59.68
28344;BME280;15597;50.914;6.638;2023-08-07T01:23:49;100539.28;;;18.02;59.77
28344;BME280;15597;50.914;6.638;2023-08-07T01:26:16;100541.72;;;18.07;59.54
28344;BME280;15597;50.914;6.638;2023-08-07T01:28:48;100537.09;;;18.10;59.22
28344;BME280;15597;50.914;6.638;2023-08-07T01:31:19;100535.91;;;18.16;59.23
28344;BME280;15597;50.914;6.638;2023-08-07T01:34:01;100546.16;;;18.22;58.87
28344;BME280;15597;50.914;6.638;2023-08-07T01:36:28;100536.25;;;18.26;58.64
28344;BME280;15597;50.914;6.638;2023-08-07T01:38:57;100541.72;;;18.23;58.86
28344;BME280;15597;50.914;6.638;2023-08-07T01:41:23;100549.59;;;18.24;58.77
28344;BME280;15597;50.914;6.638;2023-08-07T01:43:49;100541.72;;;18.23;58.61
28344;BME280;15597;50.914;6.638;2023-08-07T01:46:16;100544.28;;;18.24;58.58
28344;BME280;15597;50.914;6.638;2023-08-07T01:48:41;100540.69;;;18.25;58.52
28344;BME280;15597;50.914;6.638;2023-08-07T01:51:07;100542.59;;;18.23;58.54
28344;BME280;15597;50.914;6.638;2023-08-07T01:53:33;100537.97;;;18.27;58.47
28344;BME280;15597;50.914;6.638;2023-08-07T01:55:58;100548.72;;;18.24;58.55
28344;BME280;15597;50.914;6.638;2023-08-07T01:58:24;100551.28;;;18.25;58.38
28344;BME280;15597;50.914;6.638;2023-08-07T02:00:50;100545.06;;;18.27;58.24
28344;BME280;15597;50.914;6.638;2023-08-07T02:03:16;100544.13;;;18.28;58.09
28344;BME280;15597;50.914;6.638;2023-08-07T02:05:41;100553.19;;;18.23;58.11
28344;BME280;15597;50.914;6.638;2023-08-07T02:08:07;100560.59;;;18.17;58.58
28344;BME280;15597;50.914;6.638;2023-08-07T02:10:32;100543.84;;;18.16;58.49
28344;BME280;15597;50.914;6.638;2023-08-07T02:12:58;100557.25;;;18.13;58.27
28344;BME280;15597;50.914;6.638;2023-08-07T02:15:25;100557.44;;;18.10;58.30
28344;BME280;15597;50.914;6.638;2023-08-07T02:17:51;100561.19;;;18.06;58.58
28344;BME280;15597;50.914;6.638;2023-08-07T02:20:16;100558.38;;;18.09;58.63
28344;BME280;15597;50.914;6.638;2023-08-07T02:22:42;100565.97;;;18.15;58.45
28344;BME280;15597;50.914;6.638;2023-08-07T02:25:08;100564.94;;;18.18;58.36
28344;BME280;15597;50.914;6.638;2023-08-07T02:27:33;100562.38;;;18.16;58.05
28344;BME280;15597;50.914;6.638;2023-08-07T02:29:59;100564.09;;;18.17;58.24
28344;BME280;15597;50.914;6.638;2023-08-07T02:32:25;100572.88;;;18.18;58.16
28344;BME280;15597;50.914;6.638;2023-08-07T02:34:53;100567.59;;;18.18;58.31
28344;BME280;15597;50.914;6.638;2023-08-07T02:37:18;100578.13;;;18.19;58.16
28344;BME280;15597;50.914;6.638;2023-08-07T02:39:46;100574.69;;;18.17;58.04
28344;BME280;15597;50.914;6.638;2023-08-07T02:42:11;100577.56;;;18.13;58.10
28344;BME280;15597;50.914;6.638;2023-08-07T02:44:37;100577.56;;;18.13;58.07
28344;BME280;15597;50.914;6.638;2023-08-07T02:47:03;100575.63;;;18.16;58.07
28344;BME280;15597;50.914;6.638;2023-08-07T02:49:29;100584.19;;;18.21;57.81
28344;BME280;15597;50.914;6.638;2023-08-07T02:51:55;100578.88;;;18.21;57.80
28344;BME280;15597;50.914;6.638;2023-08-07T02:54:21;100573.16;;;18.13;57.92
28344;BME280;15597;50.914;6.638;2023-08-07T02:56:47;100578.44;;;18.13;57.88
28344;BME280;15597;50.914;6.638;2023-08-07T02:59:14;100574.84;;;18.14;57.77
28344;BME280;15597;50.914;6.638;2023-08-07T03:01:40;100575.78;;;18.13;57.98
28344;BME280;15597;50.914;6.638;2023-08-07T03:04:05;100578.59;;;18.10;58.02
28344;BME280;15597;50.914;6.638;2023-08-07T03:06:31;100575.97;;;18.10;57.82
28344;BME280;15597;50.914;6.638;2023-08-07T03:08:56;100570.13;;;18.03;57.88
28344;BME280;15597;50.914;6.638;2023-08-07T03:11:22;100577.13;;;18.04;58.08
28344;BME280;15597;50.914;6.638;2023-08-07T03:13:47;100568.00;;;18.10;57.87
28344;BME280;15597;50.914;6.638;2023-08-07T03:16:14;100574.94;;;18.13;57.77
28344;BME280;15597;50.914;6.638;2023-08-07T03:18:40;100571.59;;;18.09;57.95
28344;BME280;15597;50.914;6.638;2023-08-07T03:21:06;100568.97;;;18.09;57.90
28344;BME280;15597;50.914;6.638;2023-08-07T03:23:32;100574.25;;;18.09;57.96
28344;BME280;15597;50.914;6.638;2023-08-07T03:26:09;100571.75;;;18.06;58.14
28344;BME280;15597;50.914;6.638;2023-08-07T03:28:36;100569.28;;;18.03;58.06
28344;BME280;15597;50.914;6.638;2023-08-07T03:31:02;100580.78;;;18.02;58.02
28344;BME280;15597;50.914;6.638;2023-08-07T03:33:31;100577.22;;;18.03;58.11
28344;BME280;15597;50.914;6.638;2023-08-07T03:35:56;100585.16;;;18.03;58.23
28344;BME280;15597;50.914;6.638;2023-08-07T03:38:22;100581.47;;;18.05;58.07
28344;BME280;15597;50.914;6.638;2023-08-07T03:40:51;100584.06;;;18.07;57.91
28344;BME280;15597;50.914;6.638;2023-08-07T03:43:16;100580.47;;;18.08;57.89
28344;BME280;15597;50.914;6.638;2023-08-07T03:45:42;100593.13;;;18.03;57.83
28344;BME280;15597;50.914;6.638;2023-08-07T03:48:08;100588.81;;;18.00;58.06
28344;BME280;15597;50.914;6.638;2023-08-07T03:50:34;100595.84;;;18.00;58.13
28344;BME280;15597;50.914;6.638;2023-08-07T03:53:06;100585.38;;;17.98;58.43
28344;BME280;15597;50.914;6.638;2023-08-07T03:55:35;100591.66;;;17.95;58.47
28344;BME280;15597;50.914;6.638;2023-08-07T03:58:01;100587.31;;;17.94;58.44
28344;BME280;15597;50.914;6.638;2023-08-07T04:00:27;100594.16;;;17.99;58.29
28344;BME280;15597;50.914;6.638;2023-08-07T04:02:53;100590.56;;;18.00;58.40
28344;BME280;15597;50.914;6.638;2023-08-07T04:05:18;100585.38;;;17.98;58.61
28344;BME280;15597;50.914;6.638;2023-08-07T04:07:44;100588.72;;;18.02;58.33
28344;BME280;15597;50.914;6.638;2023-08-07T04:10:10;100592.94;;;18.06;58.24
28344;BME280;15597;50.914;6.638;2023-08-07T04:12:35;100595.34;;;18.10;58.25
28344;BME280;15597;50.914;6.638;2023-08-07T04:15:01;100589.03;;;18.13;58.27
28344;BME280;15597;50.914;6.638;2023-08-07T04:17:27;100595.09;;;18.15;58.07
28344;BME280;15597;50.914;6.638;2023-08-07T04:19:54;100595.09;;;18.15;58.36
28344;BME280;15597;50.914;6.638;2023-08-07T04:22:19;100591.53;;;18.16;58.07
28344;BME280;15597;50.914;6.638;2023-08-07T04:24:45;100601.19;;;18.17;58.16
28344;BME280;15597;50.914;6.638;2023-08-07T04:27:11;100601.19;;;18.17;58.19
28344;BME280;15597;50.914;6.638;2023-08-07T04:29:37;100605.59;;;18.17;57.70
28344;BME280;15597;50.914;6.638;2023-08-07T04:32:03;100597.16;;;18.10;58.06
28344;BME280;15597;50.914;6.638;2023-08-07T04:34:29;100600.97;;;18.04;58.11
28344;BME280;15597;50.914;6.638;2023-08-07T04:36:54;100600.25;;;18.01;57.96
28344;BME280;15597;50.914;6.638;2023-08-07T04:39:21;100603.53;;;18.06;58.22
28344;BME280;15597;50.914;6.638;2023-08-07T04:41:47;100601.97;;;18.02;57.99
28344;BME280;15597;50.914;6.638;2023-08-07T04:44:16;100601.97;;;18.02;58.05
28344;BME280;15597;50.914;6.638;2023-08-07T04:46:41;100610.84;;;18.01;58.27
28344;BME280;15597;50.914;6.638;2023-08-07T04:49:07;100614.28;;;18.03;57.95
28344;BME280;15597;50.914;6.638;2023-08-07T04:51:32;100607.38;;;17.99;58.16
28344;BME280;15597;50.914;6.638;2023-08-07T04:53:58;100614.53;;;17.96;58.26
28344;BME280;15597;50.914;6.638;2023-08-07T04:56:23;100611.06;;;17.96;58.23
28344;BME280;15597;50.914;6.638;2023-08-07T04:58:49;100614.38;;;18.00;58.12
28344;BME280;15597;50.914;6.638;2023-08-07T05:01:15;100614.28;;;18.03;58.05
28344;BME280;15597;50.914;6.638;2023-08-07T05:03:40;100618.72;;;18.02;58.15
28344;BME280;15597;50.914;6.638;2023-08-07T05:06:06;100616.78;;;18.06;57.82
28344;BME280;15597;50.914;6.638;2023-08-07T05:08:31;100619.25;;;18.09;57.72
28344;BME280;15597;50.914;6.638;2023-08-07T05:10:57;100609.34;;;18.13;57.48
28344;BME280;15597;50.914;6.638;2023-08-07T05:13:23;100612.88;;;18.13;57.49
28344;BME280;15597;50.914;6.638;2023-08-07T05:15:48;100616.50;;;18.10;57.30
28344;BME280;15597;50.914;6.638;2023-08-07T05:18:15;100616.69;;;18.07;57.45
28344;BME280;15597;50.914;6.638;2023-08-07T05:20:40;100621.44;;;18.01;57.54
28344;BME280;15597;50.914;6.638;2023-08-07T05:23:06;100623.13;;;18.02;57.43
28344;BME280;15597;50.914;6.638;2023-08-07T05:25:32;100622.13;;;18.04;57.44
28344;BME280;15597;50.914;6.638;2023-08-07T05:27:58;100615.84;;;18.07;57.29
28344;BME280;15597;50.914;6.638;2023-08-07T05:30:23;100615.84;;;18.07;57.15
28344;BME280;15597;50.914;6.638;2023-08-07T05:32:49;100620.19;;;18.08;57.27
28344;BME280;15597;50.914;6.638;2023-08-07T05:35:15;100627.22;;;18.09;57.15
28344;BME280;15597;50.914;6.638;2023-08-07T05:37:40;100622.69;;;18.11;57.10
28344;BME280;15597;50.914;6.638;2023-08-07T05:40:06;100626.09;;;18.13;57.21
28344;BME280;15597;50.914;6.638;2023-08-07T05:42:32;100631.47;;;18.12;56.83
28344;BME280;15597;50.914;6.638;2023-08-07T05:44:58;100638.47;;;18.13;56.92
28344;BME280;15597;50.914;6.638;2023-08-07T05:47:24;100628.91;;;18.10;56.75
28344;BME280;15597;50.914;6.638;2023-08-07T05:49:50;100637.19;;;18.04;56.95
28344;BME280;15597;50.914;6.638;2023-08-07T05:52:17;100632.56;;;18.07;56.83
28344;BME280;15597;50.914;6.638;2023-08-07T05:54:43;100641.38;;;18.08;57.02
28344;BME280;15597;50.914;6.638;2023-08-07T05:57:09;100647.59;;;18.07;56.71
28344;BME280;15597;50.914;6.638;2023-08-07T05:59:34;100646.75;;;18.06;56.72
28344;BME280;15597;50.914;6.638;2023-08-07T06:02:02;100649.47;;;18.05;56.82
28344;BME280;15597;50.914;6.638;2023-08-07T06:04:27;100656.50;;;18.06;56.73
28344;BME280;15597;50.914;6.638;2023-08-07T06:06:53;100654.84;;;18.03;56.76
28344;BME280;15597;50.914;6.638;2023-08-07T06:09:19;100654.19;;;17.98;56.68
28344;BME280;15597;50.914;6.638;2023-08-07T06:11:47;100648.13;;;17.96;56.86
28344;BME280;15597;50.914;6.638;2023-08-07T06:14:13;100662.50;;;17.90;56.97
28344;BME280;15597;50.914;6.638;2023-08-07T06:16:38;100663.59;;;17.86;57.05
28344;BME280;15597;50.914;6.638;2023-08-07T06:19:04;100656.59;;;17.85;56.98
28344;BME280;15597;50.914;6.638;2023-08-07T06:21:30;100663.00;;;17.81;57.36
28344;BME280;15597;50.914;6.638;2023-08-07T06:23:56;100662.53;;;17.73;57.54
28344;BME280;15597;50.914;6.638;2023-08-07T06:26:22;100664.16;;;17.75;57.61
28344;BME280;15597;50.914;6.638;2023-08-07T06:28:48;100658.00;;;17.75;57.77
28344;BME280;15597;50.914;6.638;2023-08-07T06:31:15;100663.44;;;17.72;57.87
28344;BME280;15597;50.914;6.638;2023-08-07T06:33:41;100663.44;;;17.72;58.18
28344;BME280;15597;50.914;6.638;2023-08-07T06:36:07;100666.72;;;17.77;57.87
28344;BME280;15597;50.914;6.638;2023-08-07T06:38:34;100670.16;;;17.79;58.22
28344;BME280;15597;50.914;6.638;2023-08-07T06:41:00;100668.59;;;17.75;58.20
28344;BME280;15597;50.914;6.638;2023-08-07T06:43:26;100675.69;;;17.74;58.29
28344;BME280;15597;50.914;6.638;2023-08-07T06:45:53;100679.97;;;17.77;58.22
28344;BME280;15597;50.914;6.638;2023-08-07T06:48:19;100678.88;;;17.81;58.17
28344;BME280;15597;50.914;6.638;2023-08-07T06:50:51;100678.88;;;17.81;58.31
28344;BME280;15597;50.914;6.638;2023-08-07T06:53:17;100683.22;;;17.82;58.23
28344;BME280;15597;50.914;6.638;2023-08-07T06:55:43;100684.00;;;17.84;57.96
28344;BME280;15597;50.914;6.638;2023-08-07T06:58:09;100693.75;;;17.84;58.17
28344;BME280;15597;50.914;6.638;2023-08-07T07:00:36;100694.59;;;17.84;58.21
28344;BME280;15597;50.914;6.638;2023-08-07T07:03:02;100685.56;;;17.88;57.99
28344;BME280;15597;50.914;6.638;2023-08-07T07:05:29;100693.59;;;17.87;58.04
28344;BME280;15597;50.914;6.638;2023-08-07T07:07:56;100695.22;;;17.89;58.17
28344;BME280;15597;50.914;6.638;2023-08-07T07:10:21;100693.75;;;17.84;58.31
28344;BME280;15597;50.914;6.638;2023-08-07T07:12:47;100694.59;;;17.84;58.12
28344;BME280;15597;50.914;6.638;2023-08-07T07:15:13;100698.00;;;17.86;58.27
28344;BME280;15597;50.914;6.638;2023-08-07T07:17:39;100698.88;;;17.87;58.50
28344;BME280;15597;50.914;6.638;2023-08-07T07:20:05;100708.59;;;17.86;58.36
28344;BME280;15597;50.914;6.638;2023-08-07T07:22:31;100701.44;;;17.88;58.62
28344;BME280;15597;50.914;6.638;2023-08-07T07:24:57;100713.69;;;17.91;58.46
28344;BME280;15597;50.914;6.638;2023-08-07T07:27:22;100715.59;;;17.87;58.51
28344;BME280;15597;50.914;6.638;2023-08-07T07:29:50;100721.84;;;17.86;58.49
28344;BME280;15597;50.914;6.638;2023-08-07T07:32:16;100722.63;;;17.88;58.35
28344;BME280;15597;50.914;6.638;2023-08-07T07:34:43;100735.22;;;17.83;58.50
28344;BME280;15597;50.914;6.638;2023-08-07T07:37:08;100729.78;;;17.86;58.47
28344;BME280;15597;50.914;6.638;2023-08-07T07:39:35;100742.94;;;17.88;58.40
28344;BME280;15597;50.914;6.638;2023-08-07T07:42:01;100742.09;;;17.87;58.50
28344;BME280;15597;50.914;6.638;2023-08-07T07:44:26;100743.63;;;17.91;58.46
28344;BME280;15597;50.914;6.638;2023-08-07T07:46:52;100741.78;;;17.93;58.40
28344;BME280;15597;50.914;6.638;2023-08-07T07:49:18;100746.22;;;17.93;58.53
28344;BME280;15597;50.914;6.638;2023-08-07T07:51:44;100746.91;;;17.96;58.41
28344;BME280;15597;50.914;6.638;2023-08-07T07:54:10;100750.34;;;17.99;58.54
28344;BME280;15597;50.914;6.638;2023-08-07T07:56:36;100748.38;;;18.04;58.38
28344;BME280;15597;50.914;6.638;2023-08-07T07:59:01;100754.50;;;18.04;58.43
28344;BME280;15597;50.914;6.638;2023-08-07T08:01:27;100748.06;;;18.10;58.07
28344;BME280;15597;50.914;6.638;2023-08-07T08:03:53;100761.53;;;18.05;58.26
28344;BME280;15597;50.914;6.638;2023-08-07T08:06:19;100754.44;;;18.06;58.23
28344;BME280;15597;50.914;6.638;2023-08-07T08:08:45;100751.81;;;18.06;58.51
28344;BME280;15597;50.914;6.638;2023-08-07T08:11:10;100764.13;;;18.07;58.57
28344;BME280;15597;50.914;6.638;2023-08-07T08:13:36;100766.66;;;18.08;58.43
28344;BME280;15597;50.914;6.638;2023-08-07T08:16:04;100766.44;;;18.13;58.25
28344;BME280;15597;50.914;6.638;2023-08-07T08:18:30;100781.25;;;18.17;58.06
28344;BME280;15597;50.914;6.638;2023-08-07T08:20:56;100780.53;;;18.14;58.00
28344;BME280;15597;50.914;6.638;2023-08-07T08:23:21;100779.44;;;18.18;58.17
28344;BME280;15597;50.914;6.638;2023-08-07T08:25:48;100771.34;;;18.21;57.82
28344;BME280;15597;50.914;6.638;2023-08-07T08:28:14;100781.09;;;18.20;58.00
28344;BME280;15597;50.914;6.638;2023-08-07T08:30:41;100782.72;;;18.23;57.90
28344;BME280;15597;50.914;6.638;2023-08-07T08:33:07;100779.06;;;18.25;57.92
28344;BME280;15597;50.914;6.638;2023-08-07T08:35:36;100784.22;;;18.29;58.04
28344;BME280;15597;50.914;6.638;2023-08-07T08:38:02;100793.63;;;18.34;57.82
28344;BME280;15597;50.914;6.638;2023-08-07T08:40:30;100790.13;;;18.34;58.04
28344;BME280;15597;50.914;6.638;2023-08-07T08:42:55;100794.25;;;18.39;57.71
28344;BME280;15597;50.914;6.638;2023-08-07T08:45:25;100793.25;;;18.42;57.66
28344;BME280;15597;50.914;6.638;2023-08-07T08:47:51;100792.16;;;18.46;57.38
28344;BME280;15597;50.914;6.638;2023-08-07T08:50:19;100794.78;;;18.46;57.75
28344;BME280;15597;50.914;6.638;2023-08-07T08:52:46;100796.34;;;18.50;57.36
28344;BME280;15597;50.914;6.638;2023-08-07T08:55:12;100805.06;;;18.52;57.51
28344;BME280;15597;50.914;6.638;2023-08-07T08:57:39;100802.44;;;18.52;57.73
28344;BME280;15597;50.914;6.638;2023-08-07T09:00:06;100803.91;;;18.58;57.46
28344;BME280;15597;50.914;6.638;2023-08-07T09:02:39;100812.41;;;18.47;57.55
28344;BME280;15597;50.914;6.638;2023-08-07T09:05:05;100808.66;;;18.51;57.50
28344;BME280;15597;50.914;6.638;2023-08-07T09:07:31;100819.03;;;18.56;57.34
28344;BME280;15597;50.914;6.638;2023-08-07T09:09:57;100822.31;;;18.61;57.15
28344;BME280;15597;50.914;6.638;2023-08-07T09:12:29;100828.44;;;18.62;57.23
28344;BME280;15597;50.914;6.638;2023-08-07T09:14:57;100819.06;;;18.72;56.35
28344;BME280;15597;50.914;6.638;2023-08-07T09:17:36;100823.44;;;18.73;55.83
28344;BME280;15597;50.914;6.638;2023-08-07T09:20:04;100832.59;;;18.67;56.20
28344;BME280;15597;50.914;6.638;2023-08-07T09:22:32;100840.59;;;18.66;56.29
28344;BME280;15597;50.914;6.638;2023-08-07T09:24:57;100838.88;;;18.65;56.55
28344;BME280;15597;50.914;6.638;2023-08-07T09:27:25;100832.03;;;18.61;56.84
28344;BME280;15597;50.914;6.638;2023-08-07T09:29:51;100840.91;;;18.60;57.02
28344;BME280;15597;50.914;6.638;2023-08-07T09:32:19;100850.53;;;18.62;57.08
28344;BME280;15597;50.914;6.638;2023-08-07T09:34:47;100849.97;;;18.56;56.96
28344;BME280;15597;50.914;6.638;2023-08-07T09:37:14;100859.56;;;18.58;56.93
28344;BME280;15597;50.914;6.638;2023-08-07T09:39:40;100858.91;;;18.53;57.42
28344;BME280;15597;50.914;6.638;2023-08-07T09:42:16;100864.47;;;18.48;57.82
28344;BME280;15597;50.914;6.638;2023-08-07T09:44:42;100858.84;;;18.54;58.22
28344;BME280;15597;50.914;6.638;2023-08-07T09:47:16;100849.81;;;18.59;58.08
28344;BME280;15597;50.914;6.638;2023-08-07T09:49:42;100846.78;;;18.66;58.07
28344;BME280;15597;50.914;6.638;2023-08-07T09:52:10;100841.22;;;18.71;57.77
28344;BME280;15597;50.914;6.638;2023-08-07T09:54:36;100845.09;;;18.81;57.32
28344;BME280;15597;50.914;6.638;2023-08-07T09:57:04;100858.97;;;18.87;57.58
28344;BME280;15597;50.914;6.638;2023-08-07T09:59:32;100853.16;;;18.97;56.77
28344;BME280;15597;50.914;6.638;2023-08-07T10:01:59;100842.13;;;19.05;56.49
28344;BME280;15597;50.914;6.638;2023-08-07T10:04:26;100843.72;;;19.09;57.01
28344;BME280;15597;50.914;6.638;2023-08-07T10:06:52;100845.94;;;19.17;56.54
28344;BME280;15597;50.914;6.638;2023-08-07T10:09:19;100844.59;;;19.26;56.13
28344;BME280;15597;50.914;6.638;2023-08-07T10:11:45;100850.25;;;19.36;54.91
28344;BME280;15597;50.914;6.638;2023-08-07T10:14:15;100848.34;;;19.38;54.31
28344;BME280;15597;50.914;6.638;2023-08-07T10:16:41;100860.34;;;19.45;54.11
28344;BME280;15597;50.914;6.638;2023-08-07T10:19:08;100853.00;;;19.50;54.08
28344;BME280;15597;50.914;6.638;2023-08-07T10:21:40;100848.44;;;19.52;54.25
28344;BME280;15597;50.914;6.638;2023-08-07T10:24:08;100847.03;;;19.63;53.41
28344;BME280;15597;50.914;6.638;2023-08-07T10:26:35;100851.13;;;19.68;53.23
28344;BME280;15597;50.914;6.638;2023-08-07T10:29:07;100850.28;;;19.68;53.13
28344;BME280;15597;50.914;6.638;2023-08-07T10:31:35;100866.88;;;19.71;53.42
28344;BME280;15597;50.914;6.638;2023-08-07T10:34:02;100855.75;;;19.81;52.90
28344;BME280;15597;50.914;6.638;2023-08-07T10:36:35;100848.56;;;19.83;52.34
28344;BME280;15597;50.914;6.638;2023-08-07T10:39:09;100855.69;;;19.82;52.39
28344;BME280;15597;50.914;6.638;2023-08-07T10:41:45;100854.56;;;19.87;52.17
28344;BME280;15597;50.914;6.638;2023-08-07T10:44:32;100855.41;;;19.87;52.32
28344;BME280;15597;50.914;6.638;2023-08-07T10:46:58;100857.56;;;19.96;51.87
28344;BME280;15597;50.914;6.638;2023-08-07T10:49:31;100861.09;;;19.97;51.21
28344;BME280;15597;50.914;6.638;2023-08-07T10:52:07;100860.91;;;20.00;51.41
28344;BME280;15597;50.914;6.638;2023-08-07T10:54:49;100865.94;;;20.05;51.72
28344;BME280;15597;50.914;6.638;2023-08-07T10:57:17;100865.53;;;20.12;51.18
28344;BME280;15597;50.914;6.638;2023-08-07T11:02:26;100862.25;;;20.23;51.01
28344;BME280;15597;50.914;6.638;2023-08-07T11:04:53;100866.69;;;20.23;50.75
28344;BME280;15597;50.914;6.638;2023-08-07T11:07:24;100874.59;;;20.24;50.50
28344;BME280;15597;50.914;6.638;2023-08-07T11:09:51;100874.44;;;20.27;50.77
28344;BME280;15597;50.914;6.638;2023-08-07T11:12:16;100866.56;;;20.40;50.04
28344;BME280;15597;50.914;6.638;2023-08-07T11:14:42;100858.16;;;20.48;49.87
28344;BME280;15597;50.914;6.638;2023-08-07T11:17:08;100875.06;;;20.47;49.66
28344;BME280;15597;50.914;6.638;2023-08-07T11:19:33;100871.94;;;20.55;48.87
28344;BME280;15597;50.914;6.638;2023-08-07T11:22:00;100875.34;;;20.57;48.82
28344;BME280;15597;50.914;6.638;2023-08-07T11:24:27;100875.69;;;20.67;48.23
28344;BME280;15597;50.914;6.638;2023-08-07T11:26:53;100871.81;;;20.72;48.89
28344;BME280;15597;50.914;6.638;2023-08-07T11:29:21;100874.28;;;20.76;49.21
28344;BME280;15597;50.914;6.638;2023-08-07T11:31:48;100871.00;;;20.86;48.17
28344;BME280;15597;50.914;6.638;2023-08-07T11:34:14;100861.50;;;20.97;47.84
28344;BME280;15597;50.914;6.638;2023-08-07T11:36:43;100851.25;;;21.05;47.99
28344;BME280;15597;50.914;6.638;2023-08-07T11:39:09;100864.84;;;21.15;46.63
28344;BME280;15597;50.914;6.638;2023-08-07T11:41:35;100861.88;;;21.20;46.05
28344;BME280;15597;50.914;6.638;2023-08-07T11:44:01;100861.88;;;21.20;46.86
28344;BME280;15597;50.914;6.638;2023-08-07T11:46:26;100854.50;;;21.25;46.13
28344;BME280;15597;50.914;6.638;2023-08-07T11:48:52;100861.34;;;21.29;46.14
28344;BME280;15597;50.914;6.638;2023-08-07T11:51:20;100852.97;;;21.35;45.92
28344;BME280;15597;50.914;6.638;2023-08-07T11:53:46;100860.38;;;21.44;46.24
28344;BME280;15597;50.914;6.638;2023-08-07T11:56:13;100863.41;;;21.53;45.69
28344;BME280;15597;50.914;6.638;2023-08-07T11:58:45;100862.81;;;21.62;45.18
28344;BME280;15597;50.914;6.638;2023-08-07T12:01:18;100858.72;;;21.71;45.28
28344;BME280;15597;50.914;6.638;2023-08-07T12:03:55;100866.34;;;21.77;45.01
28344;BME280;15597;50.914;6.638;2023-08-07T12:06:22;100857.44;;;21.91;44.20
28344;BME280;15597;50.914;6.638;2023-08-07T12:08:50;100858.09;;;21.95;44.67
28344;BME280;15597;50.914;6.638;2023-08-07T12:11:18;100859.41;;;22.02;44.72
28344;BME280;15597;50.914;6.638;2023-08-07T12:13:45;100870.78;;;22.18;43.94
28344;BME280;15597;50.914;6.638;2023-08-07T12:16:13;100853.06;;;22.17;43.32
28344;BME280;15597;50.914;6.638;2023-08-07T12:18:49;100860.75;;;22.22;44.01
28344;BME280;15597;50.914;6.638;2023-08-07T12:21:25;100855.47;;;22.35;44.44
28344;BME280;15597;50.914;6.638;2023-08-07T12:23:54;100869.41;;;22.53;43.96
28344;BME280;15597;50.914;6.638;2023-08-07T12:26:20;100864.41;;;22.61;43.26
28344;BME280;15597;50.914;6.638;2023-08-07T12:28:45;100867.06;;;22.61;43.33
28344;BME280;15597;50.914;6.638;2023-08-07T12:31:11;100869.72;;;22.61;43.21
28344;BME280;15597;50.914;6.638;2023-08-07T12:33:37;100870.56;;;22.62;42.75
28344;BME280;15597;50.914;6.638;2023-08-07T12:36:02;100866.81;;;22.52;43.11
28344;BME280;15597;50.914;6.638;2023-08-07T12:38:28;100864.66;;;22.44;43.56
28344;BME280;15597;50.914;6.638;2023-08-07T12:40:55;100867.75;;;22.38;43.96
28344;BME280;15597;50.914;6.638;2023-08-07T12:43:20;100872.00;;;22.40;44.06
28344;BME280;15597;50.914;6.638;2023-08-07T12:45:46;100867.03;;;22.49;43.87
28344;BME280;15597;50.914;6.638;2023-08-07T12:48:12;100869.19;;;22.56;43.96
28344;BME280;15597;50.914;6.638;2023-08-07T12:50:38;100872.41;;;22.61;43.69
28344;BME280;15597;50.914;6.638;2023-08-07T12:53:04;100860.03;;;22.73;44.27
28344;BME280;15597;50.914;6.638;2023-08-07T12:55:30;100857.91;;;22.91;43.43